createdAt,value
2023-01-13T00:01:27.220Z,2.31
2023-01-13T00:03:56.491Z,2.32
2023-01-13T00:06:29.215Z,2.28
2023-01-13T00:09:02.007Z,2.23
2023-01-13T00:11:29.340Z,2.28
2023-01-13T00:13:56.967Z,2.25
2023-01-13T00:16:24.439Z,2.28
2023-01-13T00:18:51.964Z,2.20
2023-01-13T00:21:24.862Z,2.17
2023-01-13T00:23:53.943Z,2.09
2023-01-13T00:26:25.325Z,2.10
2023-01-13T00:28:58.114Z,2.05
2023-01-13T00:31:27.428Z,2.01
2023-01-13T00:34:01.536Z,1.93
2023-01-13T00:36:30.769Z,1.95
2023-01-13T00:38:58.644Z,1.88
2023-01-13T00:41:26.951Z,1.83
2023-01-13T00:43:54.617Z,1.78
2023-01-13T00:46:22.781Z,1.76
2023-01-13T00:48:51.479Z,1.73
2023-01-13T00:51:21.375Z,1.70
2023-01-13T00:53:50.954Z,1.69
2023-01-13T00:56:38.599Z,1.72
2023-01-13T00:59:10.310Z,1.65
2023-01-13T01:01:38.177Z,1.65
2023-01-13T01:04:06.228Z,1.53
2023-01-13T01:06:33.801Z,1.46
2023-01-13T01:09:02.068Z,1.51
2023-01-13T01:11:31.931Z,1.49
2023-01-13T01:14:01.682Z,1.40
2023-01-13T01:16:31.327Z,1.38
2023-01-13T01:19:00.247Z,1.41
2023-01-13T01:21:29.148Z,1.40
2023-01-13T01:24:02.190Z,1.39
2023-01-13T01:26:31.568Z,1.34
2023-01-13T01:29:02.052Z,1.36
2023-01-13T01:31:32.171Z,1.36
2023-01-13T01:34:00.952Z,1.36
2023-01-13T01:36:30.119Z,1.33
2023-01-13T01:38:59.943Z,1.34
2023-01-13T01:41:31.647Z,1.33
2023-01-13T01:44:08.103Z,1.31
2023-01-13T01:46:43.975Z,1.31
2023-01-13T01:49:20.529Z,1.33
2023-01-13T01:52:01.268Z,1.30
2023-01-13T01:54:31.750Z,1.26
2023-01-13T01:56:59.666Z,1.26
2023-01-13T01:59:31.484Z,1.30
2023-01-13T02:01:59.518Z,1.27
2023-01-13T02:04:34.433Z,1.33
2023-01-13T02:07:03.231Z,1.27
2023-01-13T02:09:31.890Z,1.28
2023-01-13T02:12:17.706Z,1.24
2023-01-13T02:14:45.796Z,1.28
2023-01-13T02:17:28.964Z,1.27
2023-01-13T02:20:28.499Z,1.28
2023-01-13T02:23:33.380Z,1.27
2023-01-13T02:26:39.658Z,1.24
2023-01-13T02:29:52.379Z,1.09
2023-01-13T02:32:29.065Z,1.24
2023-01-13T02:35:07.035Z,1.19
2023-01-13T02:37:39.585Z,1.11
2023-01-13T02:40:09.930Z,1.23
2023-01-13T02:43:08.262Z,1.26
2023-01-13T02:45:43.599Z,1.30
2023-01-13T02:48:15.154Z,1.31
2023-01-13T02:50:50.561Z,1.29
2023-01-13T02:53:40.725Z,1.32
2023-01-13T02:56:09.969Z,1.28
2023-01-13T02:58:40.904Z,1.37
2023-01-13T03:01:08.612Z,1.39
2023-01-13T03:03:36.660Z,1.42
2023-01-13T03:06:16.286Z,1.44
2023-01-13T03:08:52.411Z,1.50
2023-01-13T03:11:21.835Z,1.56
2023-01-13T03:14:08.584Z,1.56
2023-01-13T03:17:02.360Z,1.47
2023-01-13T03:19:44.457Z,1.50
2023-01-13T03:22:20.490Z,1.49
2023-01-13T03:24:55.122Z,1.52
2023-01-13T03:27:33.350Z,1.54
2023-01-13T03:30:11.731Z,1.52
2023-01-13T03:32:44.259Z,1.54
2023-01-13T03:35:40.420Z,1.53
2023-01-13T03:38:14.676Z,1.61
2023-01-13T03:40:54.511Z,1.66
2023-01-13T03:44:02.400Z,1.65
2023-01-13T03:46:36.303Z,1.68
2023-01-13T03:49:07.320Z,1.76
2023-01-13T03:51:38.631Z,1.78
2023-01-13T03:54:11.421Z,1.79
2023-01-13T03:56:47.891Z,1.87
2023-01-13T03:59:28.234Z,1.90
2023-01-13T04:02:10.856Z,1.96
2023-01-13T04:05:00.497Z,2.00
2023-01-13T04:07:49.434Z,2.05
2023-01-13T04:10:26.227Z,2.12
2023-01-13T04:13:01.453Z,2.12
2023-01-13T04:15:41.151Z,2.18
2023-01-13T04:18:18.201Z,2.13
2023-01-13T04:20:48.917Z,2.28
2023-01-13T04:23:18.104Z,2.33
2023-01-13T04:25:47.046Z,2.39
2023-01-13T04:28:16.001Z,2.45
2023-01-13T04:30:44.871Z,2.43
2023-01-13T04:33:13.855Z,2.46
2023-01-13T04:35:41.834Z,2.53
2023-01-13T04:38:18.349Z,2.49
2023-01-13T04:40:46.849Z,2.61
2023-01-13T04:43:15.738Z,2.62
2023-01-13T04:45:43.878Z,2.65
2023-01-13T04:48:11.731Z,2.68
2023-01-13T04:50:39.815Z,2.77
2023-01-13T04:53:07.420Z,2.82
2023-01-13T04:55:35.401Z,2.85
2023-01-13T04:58:07.620Z,2.90
2023-01-13T05:00:36.188Z,2.98
2023-01-13T05:03:04.035Z,3.03
2023-01-13T05:05:31.612Z,3.03
2023-01-13T05:07:59.429Z,3.07
2023-01-13T05:10:27.997Z,3.10
2023-01-13T05:13:13.765Z,3.11
2023-01-13T05:16:00.946Z,3.16
2023-01-13T05:18:30.774Z,3.22
2023-01-13T05:20:58.534Z,3.25
2023-01-13T05:23:44.505Z,3.24
2023-01-13T05:26:12.270Z,3.30
2023-01-13T05:28:39.849Z,3.30
2023-01-13T05:31:07.528Z,3.27
2023-01-13T05:33:36.011Z,3.36
2023-01-13T05:36:03.920Z,3.40
2023-01-13T05:38:31.474Z,3.43
2023-01-13T05:41:19.067Z,3.43
2023-01-13T05:43:46.653Z,3.47
2023-01-13T05:46:14.983Z,3.52
2023-01-13T05:48:43.417Z,3.54
2023-01-13T05:51:12.410Z,3.56
2023-01-13T05:53:43.171Z,3.58
2023-01-13T05:56:11.209Z,3.62
2023-01-13T05:58:38.786Z,3.66
2023-01-13T06:01:08.818Z,3.64
2023-01-13T06:03:37.860Z,3.69
2023-01-13T06:06:06.106Z,3.65
2023-01-13T06:08:33.674Z,3.74
2023-01-13T06:11:01.664Z,3.75
2023-01-13T06:13:29.242Z,3.81
2023-01-13T06:15:59.724Z,3.87
2023-01-13T06:18:30.012Z,3.88
2023-01-13T06:20:57.950Z,3.93
2023-01-13T06:23:25.420Z,3.91
2023-01-13T06:26:05.806Z,3.94
2023-01-13T06:28:33.498Z,3.96
2023-01-13T06:31:06.283Z,4.00
2023-01-13T06:33:48.053Z,4.03
2023-01-13T06:36:22.331Z,4.06
2023-01-13T06:38:53.379Z,4.10
2023-01-13T06:41:40.396Z,4.10
2023-01-13T06:44:08.190Z,4.13
2023-01-13T06:46:36.238Z,4.18
2023-01-13T06:49:03.978Z,4.17
2023-01-13T06:51:31.488Z,4.18
2023-01-13T06:53:59.193Z,4.21
2023-01-13T06:56:26.766Z,4.23
2023-01-13T06:58:55.645Z,4.25
2023-01-13T07:01:25.784Z,4.31
2023-01-13T07:03:53.370Z,4.38
2023-01-13T07:06:20.817Z,4.38
2023-01-13T07:08:49.041Z,4.38
2023-01-13T07:11:16.646Z,4.45
2023-01-13T07:14:02.394Z,4.45
2023-01-13T07:16:30.321Z,4.40
2023-01-13T07:18:58.022Z,4.47
2023-01-13T07:21:25.616Z,4.50
2023-01-13T07:23:53.514Z,4.52
2023-01-13T07:26:20.985Z,4.57
2023-01-13T07:28:48.661Z,4.48
2023-01-13T07:31:18.985Z,4.41
2023-01-13T07:33:47.154Z,4.51
2023-01-13T07:36:15.114Z,4.56
2023-01-13T07:38:44.658Z,4.59
2023-01-13T07:41:32.446Z,4.62
2023-01-13T07:44:02.834Z,4.67
2023-01-13T07:46:30.903Z,4.67
2023-01-13T07:48:58.374Z,4.65
2023-01-13T07:51:26.180Z,4.63
2023-01-13T07:53:54.487Z,4.69
2023-01-13T07:56:21.918Z,4.75
2023-01-13T07:58:51.181Z,4.70
2023-01-13T08:01:19.331Z,4.77
2023-01-13T08:03:47.148Z,4.78
2023-01-13T08:06:15.043Z,4.80
2023-01-13T08:08:42.602Z,4.78
2023-01-13T08:11:10.449Z,4.75
2023-01-13T08:13:37.898Z,4.79
2023-01-13T08:16:08.513Z,4.81
2023-01-13T08:18:37.306Z,4.85
2023-01-13T08:21:07.932Z,4.88
2023-01-13T08:23:36.943Z,4.92
2023-01-13T08:26:07.384Z,4.85
2023-01-13T08:28:34.986Z,4.88
2023-01-13T08:31:06.275Z,4.87
2023-01-13T08:33:34.237Z,4.92
2023-01-13T08:36:06.985Z,4.86
2023-01-13T08:38:36.254Z,4.94
2023-01-13T08:41:15.855Z,4.98
2023-01-13T08:43:43.811Z,5.05
2023-01-13T08:46:11.744Z,5.13
2023-01-13T08:48:39.735Z,5.15
2023-01-13T08:51:09.476Z,5.24
2023-01-13T08:53:37.018Z,5.27
2023-01-13T08:56:11.677Z,5.32
2023-01-13T08:58:40.737Z,5.33
2023-01-13T09:01:10.117Z,5.37
2023-01-13T09:03:39.150Z,5.33
2023-01-13T09:06:06.942Z,5.40
2023-01-13T09:08:34.705Z,5.46
2023-01-13T09:11:22.230Z,5.47
2023-01-13T09:13:50.489Z,5.51
2023-01-13T09:16:18.477Z,5.58
2023-01-13T09:18:45.954Z,5.62
2023-01-13T09:21:14.690Z,5.56
2023-01-13T09:23:42.239Z,5.63
2023-01-13T09:26:10.941Z,5.69
2023-01-13T09:28:38.779Z,5.76
2023-01-13T09:31:06.334Z,5.82
2023-01-13T09:33:52.400Z,5.87
2023-01-13T09:36:20.352Z,5.89
2023-01-13T09:38:49.696Z,5.80
2023-01-13T09:41:44.719Z,5.86
2023-01-13T09:44:20.127Z,5.90
2023-01-13T09:46:52.563Z,5.91
2023-01-13T09:49:24.088Z,5.93
2023-01-13T09:52:08.031Z,5.97
2023-01-13T09:54:43.053Z,5.89
2023-01-13T09:57:13.100Z,5.94
2023-01-13T09:59:41.808Z,5.95
2023-01-13T10:02:33.548Z,6.10
2023-01-13T10:05:23.907Z,6.02
2023-01-13T10:07:55.851Z,6.04
2023-01-13T10:10:41.815Z,6.14
2023-01-13T10:13:22.716Z,6.22
2023-01-13T10:16:18.973Z,6.22
2023-01-13T10:19:00.797Z,6.29
2023-01-13T10:21:37.624Z,6.29
2023-01-13T10:24:08.269Z,6.24
2023-01-13T10:27:00.494Z,6.25
2023-01-13T10:29:30.920Z,6.29
2023-01-13T10:32:00.567Z,6.34
2023-01-13T10:34:29.107Z,6.33
2023-01-13T10:37:00.605Z,6.38
2023-01-13T10:39:40.148Z,6.42
2023-01-13T10:42:14.066Z,6.64
2023-01-13T10:45:18.569Z,6.73
2023-01-13T10:48:06.258Z,6.87
2023-01-13T10:50:36.767Z,6.95
2023-01-13T10:53:24.431Z,6.97
2023-01-13T10:56:04.408Z,7.01
2023-01-13T10:58:31.863Z,6.99
2023-01-13T11:01:05.678Z,7.02
2023-01-13T11:03:43.110Z,7.02
2023-01-13T11:06:21.126Z,6.99
2023-01-13T11:08:50.913Z,7.11
2023-01-13T11:11:41.800Z,7.04
2023-01-13T11:14:55.684Z,7.03
2023-01-13T11:17:40.368Z,7.08
2023-01-13T11:20:46.786Z,7.22
2023-01-13T11:23:17.573Z,7.20
2023-01-13T11:25:49.145Z,7.22
2023-01-13T11:28:22.802Z,7.30
2023-01-13T11:31:14.651Z,7.41
2023-01-13T11:33:54.450Z,7.41
2023-01-13T11:36:31.801Z,7.36
2023-01-13T11:39:24.625Z,7.33
2023-01-13T11:42:21.125Z,7.36
2023-01-13T11:44:58.635Z,7.42
2023-01-13T11:47:28.046Z,7.43
2023-01-13T11:49:56.356Z,7.40
2023-01-13T11:52:32.095Z,7.34
2023-01-13T11:55:30.050Z,7.34
2023-01-13T11:58:09.588Z,7.31
2023-01-13T12:00:57.503Z,7.37
2023-01-13T12:03:46.243Z,7.40
2023-01-13T12:06:30.867Z,7.39
2023-01-13T12:09:29.497Z,7.46
2023-01-13T12:12:32.247Z,7.38
2023-01-13T12:15:21.355Z,7.37
2023-01-13T12:17:54.818Z,7.45
2023-01-13T12:21:01.033Z,7.41
2023-01-13T12:23:54.037Z,7.37
2023-01-13T12:26:22.684Z,7.40
2023-01-13T12:29:00.429Z,7.33
2023-01-13T12:31:29.880Z,7.29
2023-01-13T12:34:22.444Z,7.23
2023-01-13T12:37:13.563Z,7.30
2023-01-13T12:40:08.066Z,7.19
2023-01-13T12:43:32.367Z,7.15
2023-01-13T12:46:22.937Z,7.10
2023-01-13T12:49:02.373Z,7.11
2023-01-13T12:51:57.107Z,7.12
2023-01-13T12:54:37.429Z,7.16
2023-01-13T12:57:35.286Z,7.17
2023-01-13T13:00:09.538Z,7.20
2023-01-13T13:02:39.306Z,7.17
2023-01-13T13:05:15.737Z,7.22
2023-01-13T13:07:50.192Z,7.25
2023-01-13T13:10:30.101Z,7.21
2023-01-13T13:13:20.697Z,7.20
2023-01-13T13:15:51.915Z,7.26
2023-01-13T13:18:27.073Z,7.26
2023-01-13T13:21:06.119Z,7.21
2023-01-13T13:23:33.474Z,7.30
2023-01-13T13:26:20.206Z,7.31
2023-01-13T13:28:59.719Z,7.36
2023-01-13T13:32:05.598Z,7.39
2023-01-13T13:34:59.355Z,7.36
2023-01-13T13:37:58.103Z,7.42
2023-01-13T13:40:47.289Z,7.43
2023-01-13T13:43:34.888Z,7.41
2023-01-13T13:46:21.029Z,7.45
2023-01-13T13:48:54.317Z,7.47
2023-01-13T13:51:39.151Z,7.43
2023-01-13T13:54:14.512Z,7.43
2023-01-13T13:56:45.164Z,7.44
2023-01-13T13:59:17.101Z,7.44
2023-01-13T14:01:46.597Z,7.50
2023-01-13T14:04:19.957Z,7.51
2023-01-13T14:06:59.710Z,7.53
2023-01-13T14:09:40.530Z,7.48
2023-01-13T14:12:20.979Z,7.47
2023-01-13T14:14:50.019Z,7.53
2023-01-13T14:17:25.475Z,7.59
2023-01-13T14:19:59.241Z,7.54
2023-01-13T14:22:27.151Z,7.50
2023-01-13T14:24:58.059Z,7.52
2023-01-13T14:27:27.890Z,7.52
2023-01-13T14:30:00.061Z,7.45
2023-01-13T14:32:36.817Z,7.39
2023-01-13T14:35:08.154Z,7.37
2023-01-13T14:37:39.792Z,7.31
2023-01-13T14:40:38.190Z,7.28
2023-01-13T14:43:13.410Z,7.20
2023-01-13T14:45:54.808Z,7.13
2023-01-13T14:48:27.061Z,7.05
2023-01-13T14:50:54.852Z,7.00
2023-01-13T14:53:47.120Z,6.91
2023-01-13T14:56:53.883Z,6.84
2023-01-13T15:00:03.999Z,6.78
2023-01-13T15:02:43.294Z,6.70
2023-01-13T15:05:16.922Z,6.68
2023-01-13T15:08:12.304Z,6.64
2023-01-13T15:10:51.166Z,6.56
2023-01-13T15:13:29.271Z,6.54
2023-01-13T15:16:03.539Z,6.53
2023-01-13T15:18:31.419Z,6.41
2023-01-13T15:20:59.178Z,6.44
2023-01-13T15:23:26.761Z,6.39
2023-01-13T15:25:54.518Z,6.34
2023-01-13T15:28:24.589Z,6.29
2023-01-13T15:30:54.067Z,6.23
2023-01-13T15:33:22.538Z,6.22
2023-01-13T15:35:54.171Z,6.15
2023-01-13T15:38:23.662Z,6.13
2023-01-13T15:40:52.440Z,6.09
2023-01-13T15:43:40.316Z,6.07
2023-01-13T15:46:35.563Z,6.04
2023-01-13T15:49:09.944Z,5.99
2023-01-13T15:51:38.903Z,5.95
2023-01-13T15:54:07.975Z,5.94
2023-01-13T15:56:36.747Z,5.90
2023-01-13T15:59:10.690Z,5.91
2023-01-13T16:01:38.193Z,5.88
2023-01-13T16:04:06.597Z,5.87
2023-01-13T16:06:36.082Z,5.82
2023-01-13T16:09:04.638Z,5.80
2023-01-13T16:11:33.064Z,5.77
2023-01-13T16:14:00.467Z,5.77
2023-01-13T16:16:28.738Z,5.74
2023-01-13T16:18:56.602Z,5.72
2023-01-13T16:21:24.582Z,5.74
2023-01-13T16:23:52.790Z,5.69
2023-01-13T16:26:26.655Z,5.72
2023-01-13T16:28:56.118Z,5.67
2023-01-13T16:31:26.019Z,5.64
2023-01-13T16:33:54.107Z,5.63
2023-01-13T16:36:22.213Z,5.62
2023-01-13T16:38:52.550Z,5.62
2023-01-13T16:41:21.661Z,5.56
2023-01-13T16:43:49.131Z,5.56
2023-01-13T16:46:24.590Z,5.50
2023-01-13T16:48:55.372Z,5.52
2023-01-13T16:51:24.750Z,5.55
2023-01-13T16:53:52.275Z,5.55
2023-01-13T16:56:25.654Z,5.52
2023-01-13T16:58:56.357Z,5.51
2023-01-13T17:01:27.692Z,5.48
2023-01-13T17:03:56.239Z,5.47
2023-01-13T17:06:37.388Z,5.48
2023-01-13T17:09:14.518Z,5.46
2023-01-13T17:11:41.993Z,5.48
2023-01-13T17:14:18.899Z,5.48
2023-01-13T17:16:47.735Z,5.51
2023-01-13T17:19:16.277Z,5.51
2023-01-13T17:21:44.220Z,5.50
2023-01-13T17:24:12.476Z,5.50
2023-01-13T17:26:44.140Z,5.52
2023-01-13T17:29:14.799Z,5.53
2023-01-13T17:31:51.729Z,5.54
2023-01-13T17:34:19.701Z,5.50
2023-01-13T17:36:48.305Z,5.47
2023-01-13T17:39:17.698Z,5.49
2023-01-13T17:41:46.055Z,5.45
2023-01-13T17:44:14.913Z,5.45
2023-01-13T17:46:43.202Z,5.40
2023-01-13T17:49:12.453Z,5.36
2023-01-13T17:51:40.668Z,5.31
2023-01-13T17:54:12.295Z,5.23
2023-01-13T17:56:41.622Z,5.19
2023-01-13T17:59:11.675Z,5.09
2023-01-13T18:01:39.616Z,5.14
2023-01-13T18:04:09.533Z,5.14
2023-01-13T18:06:37.165Z,5.04
2023-01-13T18:09:04.716Z,5.07
2023-01-13T18:11:32.528Z,5.04
2023-01-13T18:14:02.903Z,4.93
2023-01-13T18:16:31.944Z,5.02
2023-01-13T18:19:18.890Z,4.95
2023-01-13T18:22:05.869Z,4.82
2023-01-13T18:24:52.405Z,4.76
2023-01-13T18:27:23.870Z,4.73
2023-01-13T18:29:54.364Z,4.70
2023-01-13T18:32:26.533Z,4.77
2023-01-13T18:35:05.000Z,4.83
2023-01-13T18:37:36.056Z,4.85
2023-01-13T18:40:06.532Z,4.82
2023-01-13T18:42:54.037Z,4.78
2023-01-13T18:45:28.332Z,4.68
2023-01-13T18:47:59.263Z,4.66
2023-01-13T18:50:28.288Z,4.55
2023-01-13T18:52:56.653Z,4.65
2023-01-13T18:55:24.964Z,4.57
2023-01-13T18:57:53.634Z,4.47
2023-01-13T19:00:22.243Z,4.53
2023-01-13T19:05:35.852Z,4.20
2023-01-13T19:08:04.420Z,4.20
2023-01-13T19:10:32.606Z,4.35
2023-01-13T19:13:01.708Z,4.42
2023-01-13T19:15:29.723Z,4.47
2023-01-13T19:17:57.288Z,4.53
2023-01-13T19:20:26.057Z,4.55
2023-01-13T19:22:54.315Z,4.54
2023-01-13T19:25:22.034Z,4.57
2023-01-13T19:27:49.834Z,4.54
2023-01-13T19:30:18.144Z,4.51
2023-01-13T19:32:45.940Z,4.46
2023-01-13T19:35:17.453Z,4.35
2023-01-13T19:37:45.744Z,4.46
2023-01-13T19:40:14.494Z,4.27
2023-01-13T19:43:04.900Z,4.28
2023-01-13T19:45:35.165Z,4.26
2023-01-13T19:48:05.326Z,4.25
2023-01-13T19:50:40.442Z,4.27
2023-01-13T19:53:16.444Z,4.15
2023-01-13T19:55:48.575Z,4.01
2023-01-13T19:58:18.937Z,4.16
2023-01-13T20:00:48.385Z,4.21
2023-01-13T20:03:19.321Z,4.21
2023-01-13T20:05:47.852Z,4.21
2023-01-13T20:08:15.338Z,4.17
2023-01-13T20:10:45.377Z,4.19
2023-01-13T20:13:13.385Z,4.07
2023-01-13T20:15:41.297Z,4.06
2023-01-13T20:18:09.623Z,4.12
2023-01-13T20:20:39.754Z,4.13
2023-01-13T20:23:07.396Z,4.14
2023-01-13T20:25:35.453Z,4.23
2023-01-13T20:28:03.197Z,4.13
2023-01-13T20:30:30.857Z,4.06
2023-01-13T20:32:59.080Z,4.07
2023-01-13T20:35:29.650Z,3.90
2023-01-13T20:37:57.337Z,4.14
2023-01-13T20:40:25.880Z,4.19
2023-01-13T20:42:53.737Z,4.24
2023-01-13T20:45:22.600Z,4.33
2023-01-13T20:47:50.344Z,4.40
2023-01-13T20:50:19.536Z,4.30
2023-01-13T20:52:47.929Z,4.16
2023-01-13T20:55:15.952Z,4.13
2023-01-13T20:57:43.671Z,4.23
2023-01-13T21:00:13.619Z,4.09
2023-01-13T21:02:42.000Z,4.22
2023-01-13T21:05:10.184Z,4.12
2023-01-13T21:07:37.705Z,4.19
2023-01-13T21:10:07.925Z,4.05
2023-01-13T21:12:54.353Z,4.10
2023-01-13T21:15:22.819Z,3.99
2023-01-13T21:18:10.305Z,4.04
2023-01-13T21:20:39.229Z,4.16
2023-01-13T21:23:07.779Z,4.07
2023-01-13T21:25:37.370Z,4.13
2023-01-13T21:28:10.270Z,4.07
2023-01-13T21:30:39.124Z,4.07
2023-01-13T21:33:07.019Z,4.09
2023-01-13T21:35:38.389Z,4.19
2023-01-13T21:38:05.897Z,4.19
2023-01-13T21:40:33.697Z,3.99
2023-01-13T21:43:19.860Z,4.10
2023-01-13T21:46:06.514Z,4.13
2023-01-13T21:48:34.170Z,3.82
2023-01-13T21:51:01.990Z,3.90
2023-01-13T21:53:29.456Z,3.99
2023-01-13T21:55:57.011Z,3.98
2023-01-13T21:58:25.259Z,4.11
2023-01-13T22:00:52.849Z,3.99
2023-01-13T22:03:21.035Z,3.87
2023-01-13T22:05:54.629Z,3.94
2023-01-13T22:08:22.378Z,3.83
2023-01-13T22:10:59.392Z,3.91
2023-01-13T22:13:47.738Z,3.93
2023-01-13T22:16:15.965Z,4.03
2023-01-13T22:18:43.798Z,3.98
2023-01-13T22:21:11.634Z,3.96
2023-01-13T22:23:39.291Z,3.98
2023-01-13T22:26:08.633Z,4.01
2023-01-13T22:28:43.362Z,3.97
2023-01-13T22:31:16.570Z,3.91
2023-01-13T22:33:48.060Z,3.96
2023-01-13T22:36:15.920Z,3.71
2023-01-13T22:38:43.492Z,3.85
2023-01-13T22:41:11.128Z,3.79
2023-01-13T22:43:39.194Z,3.76
2023-01-13T22:46:09.605Z,3.75
2023-01-13T22:48:38.322Z,3.75
2023-01-13T22:51:11.380Z,3.52
2023-01-13T22:53:39.515Z,3.44
2023-01-13T22:56:08.052Z,3.69
2023-01-13T22:58:35.513Z,3.69
2023-01-13T23:01:11.479Z,3.76
2023-01-13T23:03:40.140Z,3.88
2023-01-13T23:06:07.877Z,3.88
2023-01-13T23:08:35.892Z,3.99
2023-01-13T23:11:07.005Z,4.02
2023-01-13T23:13:35.314Z,3.96
2023-01-13T23:16:07.174Z,4.01
2023-01-13T23:18:35.475Z,4.05
2023-01-13T23:21:09.967Z,3.94
2023-01-13T23:23:38.425Z,3.74
2023-01-13T23:26:06.554Z,3.96
2023-01-13T23:28:35.813Z,3.97
2023-01-13T23:31:08.511Z,3.91
2023-01-13T23:33:37.698Z,3.90
2023-01-13T23:36:07.673Z,3.83
2023-01-13T23:38:35.176Z,3.94
2023-01-13T23:41:06.394Z,4.06
2023-01-13T23:43:34.856Z,3.92
2023-01-13T23:46:04.063Z,3.90
2023-01-13T23:48:32.899Z,3.95
2023-01-13T23:51:03.586Z,4.01
2023-01-13T23:53:33.627Z,3.98
2023-01-13T23:56:02.966Z,4.06
2023-01-13T23:58:30.820Z,4.08
